createdAt,value
2023-01-15T00:00:03.592Z,18.86
2023-01-15T00:02:32.502Z,18.99
2023-01-15T00:05:03.144Z,19.00
2023-01-15T00:07:31.249Z,19.00
2023-01-15T00:10:00.675Z,18.99
2023-01-15T00:12:28.714Z,18.99
2023-01-15T00:14:58.290Z,18.96
2023-01-15T00:17:26.657Z,18.97
2023-01-15T00:19:54.857Z,18.99
2023-01-15T00:22:22.899Z,18.97
2023-01-15T00:25:08.417Z,18.98
2023-01-15T00:27:41.282Z,18.97
2023-01-15T00:30:13.766Z,18.96
2023-01-15T00:32:42.470Z,18.89
2023-01-15T00:35:14.333Z,18.96
2023-01-15T00:37:42.393Z,18.73
2023-01-15T00:40:11.599Z,18.96
2023-01-15T00:42:41.197Z,18.95
2023-01-15T00:45:11.049Z,18.96
2023-01-15T00:47:39.762Z,18.96
2023-01-15T00:50:10.491Z,18.96
2023-01-15T00:52:38.925Z,18.95
2023-01-15T00:55:08.529Z,18.96
2023-01-15T00:57:36.568Z,18.80
2023-01-15T01:00:07.182Z,18.93
2023-01-15T01:02:35.243Z,18.95
2023-01-15T01:05:03.269Z,18.95
2023-01-15T01:07:31.301Z,18.93
2023-01-15T01:09:59.379Z,18.96
2023-01-15T01:12:27.406Z,18.96
2023-01-15T01:14:55.437Z,18.95
2023-01-15T01:17:24.884Z,18.96
2023-01-15T01:19:52.881Z,18.97
2023-01-15T01:22:21.077Z,18.97
2023-01-15T01:24:49.264Z,18.96
2023-01-15T01:27:19.016Z,18.93
2023-01-15T01:29:47.201Z,18.96
2023-01-15T01:32:15.327Z,18.96
2023-01-15T01:34:44.770Z,18.95
2023-01-15T01:37:13.086Z,18.95
2023-01-15T01:39:42.271Z,18.96
2023-01-15T01:42:13.566Z,18.96
2023-01-15T01:45:01.276Z,18.96
2023-01-15T01:47:33.071Z,18.94
2023-01-15T01:50:05.805Z,18.95
2023-01-15T01:52:42.664Z,18.94
2023-01-15T01:55:11.989Z,18.95
2023-01-15T01:57:40.705Z,18.95
2023-01-15T02:00:11.809Z,18.94
2023-01-15T02:02:40.921Z,18.93
2023-01-15T02:05:13.690Z,18.95
2023-01-15T02:07:42.148Z,18.94
2023-01-15T02:10:15.451Z,18.94
2023-01-15T02:12:47.854Z,18.93
2023-01-15T02:15:20.270Z,18.94
2023-01-15T02:17:54.864Z,18.91
2023-01-15T02:20:31.076Z,18.94
2023-01-15T02:23:21.954Z,18.94
2023-01-15T02:26:14.539Z,18.94
2023-01-15T02:28:46.429Z,18.93
2023-01-15T02:31:20.708Z,18.92
2023-01-15T02:33:57.355Z,18.93
2023-01-15T02:36:28.798Z,18.92
2023-01-15T02:39:00.484Z,18.92
2023-01-15T02:41:34.186Z,18.92
2023-01-15T02:44:06.648Z,18.91
2023-01-15T02:46:37.791Z,18.92
2023-01-15T02:49:10.358Z,18.52
2023-01-15T02:51:42.815Z,18.92
2023-01-15T02:54:16.252Z,18.93
2023-01-15T02:56:46.861Z,18.92
2023-01-15T02:59:23.608Z,18.93
2023-01-15T03:01:56.330Z,18.93
2023-01-15T03:04:32.294Z,18.93
2023-01-15T03:07:07.873Z,18.93
2023-01-15T03:09:37.746Z,18.93
2023-01-15T03:12:13.367Z,18.93
2023-01-15T03:14:50.973Z,18.93
2023-01-15T03:17:22.632Z,18.93
2023-01-15T03:19:55.661Z,18.93
2023-01-15T03:22:29.672Z,18.93
2023-01-15T03:25:04.819Z,18.92
2023-01-15T03:27:33.489Z,18.92
2023-01-15T03:30:08.132Z,18.92
2023-01-15T03:32:36.743Z,18.93
2023-01-15T03:35:07.759Z,18.93
2023-01-15T03:37:35.859Z,18.92
2023-01-15T03:40:04.915Z,18.92
2023-01-15T03:42:45.743Z,18.91
2023-01-15T03:45:20.623Z,18.91
2023-01-15T03:48:01.840Z,18.92
2023-01-15T03:50:37.923Z,18.91
2023-01-15T03:53:13.033Z,18.90
2023-01-15T03:55:47.267Z,18.91
2023-01-15T03:58:20.789Z,18.89
2023-01-15T04:00:53.610Z,18.88
2023-01-15T04:03:25.151Z,18.89
2023-01-15T04:05:56.198Z,18.92
2023-01-15T04:08:25.944Z,18.91
2023-01-15T04:10:55.384Z,18.92
2023-01-15T04:13:23.685Z,18.92
2023-01-15T04:15:53.894Z,18.89
2023-01-15T04:18:22.433Z,18.91
2023-01-15T04:20:51.776Z,18.91
2023-01-15T04:23:19.980Z,18.88
2023-01-15T04:25:48.115Z,18.92
2023-01-15T04:28:16.174Z,18.92
2023-01-15T04:30:44.523Z,18.91
2023-01-15T04:33:14.044Z,18.92
2023-01-15T04:35:42.093Z,18.91
2023-01-15T04:38:10.214Z,18.92
2023-01-15T04:40:56.060Z,18.92
2023-01-15T04:43:41.920Z,18.91
2023-01-15T04:46:10.054Z,18.91
2023-01-15T04:48:40.116Z,18.92
2023-01-15T04:51:09.052Z,18.92
2023-01-15T04:53:37.129Z,18.90
2023-01-15T04:56:06.502Z,18.92
2023-01-15T04:58:35.601Z,18.92
2023-01-15T05:01:05.167Z,18.92
2023-01-15T05:03:33.413Z,18.92
2023-01-15T05:06:04.612Z,18.91
2023-01-15T05:08:32.938Z,18.91
2023-01-15T05:11:03.713Z,18.91
2023-01-15T05:13:33.512Z,18.60
2023-01-15T05:16:13.692Z,18.92
2023-01-15T05:18:42.212Z,18.90
2023-01-15T05:21:18.442Z,18.89
2023-01-15T05:23:46.863Z,18.90
2023-01-15T05:26:15.220Z,18.84
2023-01-15T05:28:43.665Z,18.91
2023-01-15T05:31:13.534Z,18.90
2023-01-15T05:33:41.655Z,18.91
2023-01-15T05:36:11.907Z,18.91
2023-01-15T05:38:41.753Z,18.91
2023-01-15T05:41:26.343Z,18.88
2023-01-15T05:43:55.201Z,18.83
2023-01-15T05:46:23.467Z,18.91
2023-01-15T05:48:51.664Z,18.92
2023-01-15T05:51:19.705Z,18.92
2023-01-15T05:53:49.232Z,18.92
2023-01-15T05:56:17.296Z,18.92
2023-01-15T05:58:45.419Z,18.87
2023-01-15T06:01:13.534Z,18.92
2023-01-15T06:03:42.689Z,18.91
2023-01-15T06:06:14.622Z,18.92
2023-01-15T06:08:43.047Z,18.89
2023-01-15T06:11:12.773Z,18.90
2023-01-15T06:13:41.938Z,18.91
2023-01-15T06:16:11.914Z,18.87
2023-01-15T06:18:40.105Z,18.90
2023-01-15T06:21:09.731Z,18.91
2023-01-15T06:23:38.513Z,18.92
2023-01-15T06:26:09.048Z,18.93
2023-01-15T06:28:38.471Z,18.93
2023-01-15T06:31:07.427Z,18.90
2023-01-15T06:33:35.635Z,18.93
2023-01-15T06:36:07.387Z,18.92
2023-01-15T06:38:35.656Z,18.92
2023-01-15T06:41:25.522Z,18.65
2023-01-15T06:44:12.774Z,18.93
2023-01-15T06:47:01.713Z,18.93
2023-01-15T06:49:29.877Z,18.88
2023-01-15T06:51:58.137Z,18.92
2023-01-15T06:54:26.416Z,18.92
2023-01-15T06:56:54.844Z,18.75
2023-01-15T06:59:24.327Z,18.94
2023-01-15T07:01:52.463Z,18.93
2023-01-15T07:04:20.642Z,18.81
2023-01-15T07:06:48.702Z,18.96
2023-01-15T07:09:16.726Z,18.95
2023-01-15T07:11:50.477Z,18.95
2023-01-15T07:14:20.052Z,18.96
2023-01-15T07:16:50.031Z,18.96
2023-01-15T07:19:18.702Z,18.96
2023-01-15T07:21:47.237Z,18.94
2023-01-15T07:24:15.788Z,18.87
2023-01-15T07:26:45.537Z,18.95
2023-01-15T07:29:14.047Z,18.95
2023-01-15T07:31:42.166Z,18.95
2023-01-15T07:34:11.726Z,18.67
2023-01-15T07:36:39.848Z,18.96
2023-01-15T07:39:09.561Z,18.91
2023-01-15T07:41:55.344Z,18.86
2023-01-15T07:44:41.602Z,18.96
2023-01-15T07:47:35.216Z,18.69
2023-01-15T07:50:06.062Z,18.94
2023-01-15T07:52:34.121Z,18.93
2023-01-15T07:55:02.278Z,18.93
2023-01-15T07:57:30.386Z,18.92
2023-01-15T07:59:58.712Z,18.93
2023-01-15T08:02:27.318Z,18.95
2023-01-15T08:04:55.352Z,18.91
2023-01-15T08:07:25.022Z,18.93
2023-01-15T08:09:53.057Z,18.93
2023-01-15T08:12:38.591Z,18.94
2023-01-15T08:15:17.077Z,18.95
2023-01-15T08:17:46.597Z,18.92
2023-01-15T08:20:16.746Z,18.95
2023-01-15T08:22:46.331Z,18.95
2023-01-15T08:25:16.553Z,18.94
2023-01-15T08:27:44.836Z,18.95
2023-01-15T08:30:15.279Z,18.95
2023-01-15T08:32:43.516Z,18.92
2023-01-15T08:35:13.204Z,18.95
2023-01-15T08:37:41.503Z,18.95
2023-01-15T08:40:13.227Z,18.96
2023-01-15T08:42:41.806Z,18.94
2023-01-15T08:45:10.785Z,18.94
2023-01-15T08:47:38.872Z,18.93
2023-01-15T08:50:08.784Z,18.95
2023-01-15T08:52:38.017Z,19.00
2023-01-15T08:55:06.829Z,19.02
2023-01-15T08:57:37.721Z,18.81
2023-01-15T09:00:06.776Z,19.03
2023-01-15T09:02:34.812Z,19.01
2023-01-15T09:05:02.874Z,19.01
2023-01-15T09:07:30.965Z,19.06
2023-01-15T09:09:58.991Z,19.17
2023-01-15T09:12:27.503Z,19.29
2023-01-15T09:15:02.593Z,19.30
2023-01-15T09:17:31.042Z,19.17
2023-01-15T09:19:59.133Z,19.23
2023-01-15T09:22:30.200Z,19.18
2023-01-15T09:24:58.558Z,19.14
2023-01-15T09:27:26.694Z,19.12
2023-01-15T09:29:56.483Z,19.09
2023-01-15T09:32:24.490Z,19.07
2023-01-15T09:34:52.647Z,19.05
2023-01-15T09:37:20.701Z,19.03
2023-01-15T09:39:49.318Z,19.01
2023-01-15T09:42:32.873Z,19.00
2023-01-15T09:45:25.358Z,18.99
2023-01-15T09:48:18.977Z,18.99
2023-01-15T09:51:02.788Z,19.00
2023-01-15T09:53:45.738Z,19.04
2023-01-15T09:56:22.295Z,19.16
2023-01-15T09:58:52.407Z,19.12
2023-01-15T10:01:27.257Z,19.33
2023-01-15T10:04:03.609Z,19.39
2023-01-15T10:06:35.089Z,19.22
2023-01-15T10:09:10.031Z,19.47
2023-01-15T10:11:59.448Z,19.49
2023-01-15T10:14:41.692Z,19.44
2023-01-15T10:17:39.760Z,19.42
2023-01-15T10:20:13.762Z,19.41
2023-01-15T10:22:59.655Z,19.43
2023-01-15T10:25:32.923Z,19.42
2023-01-15T10:28:07.400Z,19.40
2023-01-15T10:30:44.529Z,19.41
2023-01-15T10:33:33.116Z,19.40
2023-01-15T10:36:06.216Z,19.41
2023-01-15T10:38:43.875Z,19.39
2023-01-15T10:41:33.136Z,19.41
2023-01-15T10:44:06.689Z,19.42
2023-01-15T10:46:38.556Z,19.39
2023-01-15T10:49:14.730Z,19.42
2023-01-15T10:51:46.517Z,19.41
2023-01-15T10:54:23.589Z,19.42
2023-01-15T10:57:02.175Z,19.34
2023-01-15T10:59:39.661Z,19.41
2023-01-15T11:02:23.251Z,19.42
2023-01-15T11:04:54.346Z,19.42
2023-01-15T11:07:27.144Z,19.39
2023-01-15T11:09:55.739Z,19.39
2023-01-15T11:12:46.844Z,19.40
2023-01-15T11:15:34.961Z,19.43
2023-01-15T11:18:22.147Z,19.24
2023-01-15T11:20:51.787Z,19.42
2023-01-15T11:23:23.345Z,19.42
2023-01-15T11:25:54.069Z,19.41
2023-01-15T11:28:32.850Z,19.12
2023-01-15T11:31:00.904Z,19.39
2023-01-15T11:33:32.159Z,19.30
2023-01-15T11:36:03.527Z,19.42
2023-01-15T11:38:43.660Z,19.25
2023-01-15T11:41:22.054Z,19.42
2023-01-15T11:44:15.940Z,19.41
2023-01-15T11:47:04.402Z,19.41
2023-01-15T11:49:49.778Z,19.42
2023-01-15T11:52:23.788Z,19.43
2023-01-15T11:54:56.071Z,19.43
2023-01-15T11:57:31.852Z,19.39
2023-01-15T12:00:00.605Z,19.41
2023-01-15T12:02:38.826Z,19.41
2023-01-15T12:05:15.595Z,19.41
2023-01-15T12:07:46.633Z,19.17
2023-01-15T12:10:41.130Z,19.41
2023-01-15T12:13:19.873Z,19.40
2023-01-15T12:15:55.567Z,19.41
2023-01-15T12:19:00.637Z,19.41
2023-01-15T12:21:47.134Z,19.41
2023-01-15T12:24:37.045Z,19.40
2023-01-15T12:27:15.851Z,19.39
2023-01-15T12:29:47.720Z,19.14
2023-01-15T12:32:19.895Z,19.39
2023-01-15T12:34:55.480Z,19.24
2023-01-15T12:37:28.299Z,19.39
2023-01-15T12:40:06.236Z,19.32
2023-01-15T12:42:55.143Z,19.39
2023-01-15T12:45:27.251Z,19.26
2023-01-15T12:48:02.489Z,19.40
2023-01-15T12:50:37.708Z,19.21
2023-01-15T12:53:13.452Z,19.40
2023-01-15T12:55:50.966Z,19.39
2023-01-15T12:58:40.263Z,19.37
2023-01-15T13:01:17.661Z,19.41
2023-01-15T13:03:58.494Z,19.37
2023-01-15T13:06:28.866Z,19.47
2023-01-15T13:09:05.363Z,19.37
2023-01-15T13:11:35.227Z,19.33
2023-01-15T13:14:03.704Z,19.23
2023-01-15T13:16:41.622Z,19.46
2023-01-15T13:19:24.439Z,19.55
2023-01-15T13:21:58.337Z,19.25
2023-01-15T13:24:50.836Z,19.56
2023-01-15T13:27:33.322Z,19.56
2023-01-15T13:30:23.131Z,19.49
2023-01-15T13:32:54.962Z,19.56
2023-01-15T13:35:31.478Z,19.57
2023-01-15T13:38:02.520Z,19.57
2023-01-15T13:40:34.957Z,19.49
2023-01-15T13:43:07.158Z,19.55
2023-01-15T13:45:38.221Z,19.53
2023-01-15T13:48:09.908Z,19.51
2023-01-15T13:50:42.273Z,19.28
2023-01-15T13:53:20.043Z,19.51
2023-01-15T13:55:54.134Z,19.51
2023-01-15T13:58:27.109Z,19.50
2023-01-15T14:01:08.988Z,19.50
2023-01-15T14:03:39.047Z,19.43
2023-01-15T14:06:08.882Z,19.45
2023-01-15T14:08:42.624Z,19.47
2023-01-15T14:11:35.976Z,19.47
2023-01-15T14:14:30.101Z,19.45
2023-01-15T14:17:07.971Z,19.38
2023-01-15T14:19:58.885Z,19.42
2023-01-15T14:22:51.556Z,19.41
2023-01-15T14:25:32.768Z,19.42
2023-01-15T14:28:22.050Z,19.40
2023-01-15T14:31:26.761Z,19.39
2023-01-15T14:34:14.854Z,19.37
2023-01-15T14:36:51.700Z,19.37
2023-01-15T14:39:34.939Z,19.32
2023-01-15T14:42:28.238Z,19.38
2023-01-15T14:45:06.729Z,19.16
2023-01-15T14:47:46.316Z,19.35
2023-01-15T14:50:26.566Z,19.35
2023-01-15T14:53:00.297Z,19.34
2023-01-15T14:55:29.191Z,19.34
2023-01-15T14:58:02.312Z,19.34
2023-01-15T15:00:36.194Z,18.94
2023-01-15T15:03:17.651Z,19.34
2023-01-15T15:05:47.772Z,19.35
2023-01-15T15:08:18.433Z,19.36
2023-01-15T15:10:52.268Z,19.34
2023-01-15T15:13:30.538Z,19.35
2023-01-15T15:16:08.484Z,18.85
2023-01-15T15:18:42.984Z,19.33
2023-01-15T15:21:17.858Z,19.34
2023-01-15T15:23:54.379Z,19.35
2023-01-15T15:26:27.236Z,19.35
2023-01-15T15:28:59.849Z,19.36
2023-01-15T15:31:29.721Z,19.35
2023-01-15T15:34:00.956Z,19.26
2023-01-15T15:36:31.708Z,19.36
2023-01-15T15:39:01.295Z,19.35
2023-01-15T15:41:50.967Z,19.34
2023-01-15T15:44:43.671Z,19.33
2023-01-15T15:47:43.210Z,19.21
2023-01-15T15:50:23.338Z,19.33
2023-01-15T15:52:51.725Z,19.18
2023-01-15T15:55:21.296Z,19.33
2023-01-15T15:57:52.842Z,19.28
2023-01-15T16:00:26.813Z,19.33
2023-01-15T16:02:55.374Z,19.33
2023-01-15T16:05:26.742Z,19.34
2023-01-15T16:07:56.366Z,19.29
2023-01-15T16:10:27.439Z,19.25
2023-01-15T16:12:58.938Z,19.32
2023-01-15T16:15:30.443Z,19.33
2023-01-15T16:18:00.675Z,19.34
2023-01-15T16:20:30.390Z,19.34
2023-01-15T16:23:00.661Z,19.34
2023-01-15T16:25:31.924Z,19.33
2023-01-15T16:28:00.893Z,19.35
2023-01-15T16:30:29.944Z,19.23
2023-01-15T16:33:02.467Z,18.84
2023-01-15T16:35:37.069Z,19.32
2023-01-15T16:38:07.399Z,19.34
2023-01-15T16:40:38.652Z,19.35
2023-01-15T16:43:09.812Z,19.30
2023-01-15T16:45:42.420Z,19.33
2023-01-15T16:48:15.498Z,19.33
2023-01-15T16:50:44.992Z,19.30
2023-01-15T16:53:31.635Z,19.17
2023-01-15T16:56:01.419Z,19.34
2023-01-15T16:58:38.579Z,19.34
2023-01-15T17:01:33.707Z,19.34
2023-01-15T17:04:02.416Z,19.35
2023-01-15T17:06:33.593Z,19.36
2023-01-15T17:09:01.873Z,19.35
2023-01-15T17:11:33.502Z,19.35
2023-01-15T17:14:12.968Z,19.35
2023-01-15T17:16:41.125Z,19.33
2023-01-15T17:19:13.109Z,19.35
2023-01-15T17:21:47.224Z,19.33
2023-01-15T17:24:15.835Z,19.21
2023-01-15T17:26:44.060Z,19.35
2023-01-15T17:29:14.169Z,19.35
2023-01-15T17:31:44.068Z,19.34
2023-01-15T17:34:15.349Z,19.17
2023-01-15T17:36:44.907Z,19.17
2023-01-15T17:39:14.576Z,19.37
2023-01-15T17:41:42.680Z,19.36
2023-01-15T17:44:11.330Z,19.36
2023-01-15T17:46:39.565Z,19.34
2023-01-15T17:49:08.040Z,19.36
2023-01-15T17:51:36.155Z,19.35
2023-01-15T17:54:05.803Z,19.36
2023-01-15T17:56:51.346Z,19.35
2023-01-15T17:59:37.174Z,19.11
2023-01-15T18:02:28.563Z,19.34
2023-01-15T18:05:13.216Z,19.18
2023-01-15T18:07:44.524Z,19.33
2023-01-15T18:10:19.049Z,19.33
2023-01-15T18:12:47.286Z,19.33
2023-01-15T18:15:16.901Z,19.33
2023-01-15T18:17:45.162Z,19.32
2023-01-15T18:20:13.798Z,19.34
2023-01-15T18:22:42.072Z,19.33
2023-01-15T18:25:12.547Z,19.34
2023-01-15T18:27:43.646Z,19.03
2023-01-15T18:30:13.188Z,19.25
2023-01-15T18:32:44.597Z,19.36
2023-01-15T18:35:14.900Z,19.37
2023-01-15T18:37:44.309Z,19.35
2023-01-15T18:40:13.593Z,19.36
2023-01-15T18:43:01.241Z,19.36
2023-01-15T18:45:46.807Z,19.26
2023-01-15T18:48:15.115Z,19.34
2023-01-15T18:50:43.752Z,19.36
2023-01-15T18:53:13.223Z,19.17
2023-01-15T18:55:41.336Z,19.14
2023-01-15T18:58:11.000Z,19.33
2023-01-15T19:00:39.193Z,19.36
2023-01-15T19:03:07.396Z,19.17
2023-01-15T19:05:41.946Z,19.08
2023-01-15T19:08:10.105Z,19.36
2023-01-15T19:10:38.233Z,19.36
2023-01-15T19:13:06.532Z,19.17
2023-01-15T19:15:53.369Z,19.37
2023-01-15T19:18:50.306Z,19.36
2023-01-15T19:21:20.281Z,19.36
2023-01-15T19:23:48.790Z,19.36
2023-01-15T19:26:17.090Z,19.37
2023-01-15T19:28:45.507Z,19.36
2023-01-15T19:31:37.962Z,19.34
2023-01-15T19:34:32.243Z,19.13
2023-01-15T19:36:57.648Z,19.34
2023-01-15T19:39:26.178Z,19.18
2023-01-15T19:42:11.955Z,19.36
2023-01-15T19:44:57.610Z,19.33
2023-01-15T19:47:48.373Z,19.12
2023-01-15T19:50:21.570Z,19.35
2023-01-15T19:52:51.549Z,19.27
2023-01-15T19:55:20.096Z,19.33
2023-01-15T19:57:49.541Z,19.34
2023-01-15T20:00:20.128Z,19.05
2023-01-15T20:02:49.891Z,19.35
2023-01-15T20:05:18.737Z,19.10
2023-01-15T20:07:46.984Z,19.35
2023-01-15T20:10:16.728Z,19.34
2023-01-15T20:13:02.647Z,19.35
2023-01-15T20:15:32.119Z,19.35
2023-01-15T20:18:01.811Z,19.35
2023-01-15T20:20:30.146Z,19.20
2023-01-15T20:22:58.359Z,19.35
2023-01-15T20:25:27.416Z,19.34
2023-01-15T20:27:56.058Z,19.33
2023-01-15T20:30:25.662Z,19.34
2023-01-15T20:32:56.418Z,19.37
2023-01-15T20:35:29.306Z,19.37
2023-01-15T20:37:57.505Z,19.16
2023-01-15T20:40:28.398Z,19.37
2023-01-15T20:43:14.471Z,19.28
2023-01-15T20:45:42.797Z,19.32
2023-01-15T20:48:28.477Z,19.36
2023-01-15T20:51:04.289Z,19.37
2023-01-15T20:53:34.656Z,19.30
2023-01-15T20:56:03.757Z,19.35
2023-01-15T20:58:33.300Z,19.33
2023-01-15T21:01:06.668Z,19.18
2023-01-15T21:03:34.915Z,19.17
2023-01-15T21:06:05.191Z,19.31
2023-01-15T21:08:34.152Z,19.34
2023-01-15T21:11:02.730Z,19.36
2023-01-15T21:13:31.306Z,19.37
2023-01-15T21:16:02.163Z,19.16
2023-01-15T21:18:32.140Z,19.36
2023-01-15T21:21:00.284Z,19.17
2023-01-15T21:23:29.777Z,19.34
2023-01-15T21:26:00.949Z,19.23
2023-01-15T21:28:29.411Z,19.18
2023-01-15T21:30:57.906Z,18.85
2023-01-15T21:33:26.029Z,19.35
2023-01-15T21:35:54.147Z,19.35
2023-01-15T21:38:22.326Z,19.37
2023-01-15T21:40:51.884Z,19.37
2023-01-15T21:43:37.612Z,19.36
2023-01-15T21:46:06.761Z,19.36
2023-01-15T21:48:34.913Z,19.34
2023-01-15T21:51:05.736Z,19.36
2023-01-15T21:53:33.892Z,19.35
2023-01-15T21:56:03.516Z,19.08
2023-01-15T21:58:31.623Z,19.36
2023-01-15T22:00:59.820Z,19.34
2023-01-15T22:03:27.946Z,19.36
2023-01-15T22:05:56.085Z,19.37
2023-01-15T22:08:24.151Z,19.19
2023-01-15T22:10:53.213Z,19.36
2023-01-15T22:13:22.708Z,19.35
2023-01-15T22:15:54.968Z,19.38
2023-01-15T22:18:26.000Z,19.38
2023-01-15T22:20:58.351Z,19.38
2023-01-15T22:23:26.690Z,19.37
2023-01-15T22:25:55.209Z,19.36
2023-01-15T22:28:24.799Z,19.36
2023-01-15T22:30:53.177Z,19.36
2023-01-15T22:33:21.409Z,19.36
2023-01-15T22:35:58.015Z,19.06
2023-01-15T22:38:26.209Z,19.04
2023-01-15T22:40:54.583Z,19.35
2023-01-15T22:43:24.160Z,19.36
2023-01-15T22:45:52.351Z,19.29
2023-01-15T22:48:20.512Z,19.37
2023-01-15T22:50:48.634Z,19.37
2023-01-15T22:53:16.739Z,19.32
2023-01-15T22:55:44.925Z,19.31
2023-01-15T22:58:12.982Z,19.37
2023-01-15T23:00:42.519Z,19.22
2023-01-15T23:03:10.564Z,19.36
2023-01-15T23:05:39.577Z,19.37
2023-01-15T23:08:07.747Z,19.37
2023-01-15T23:10:35.816Z,19.33
2023-01-15T23:13:03.830Z,19.35
2023-01-15T23:15:31.898Z,19.37
2023-01-15T23:18:01.403Z,19.37
2023-01-15T23:20:29.928Z,19.36
2023-01-15T23:22:58.000Z,19.22
2023-01-15T23:25:26.071Z,19.25
2023-01-15T23:27:54.255Z,19.34
2023-01-15T23:30:25.439Z,19.34
2023-01-15T23:32:53.449Z,19.31
2023-01-15T23:35:22.899Z,19.37
2023-01-15T23:37:51.064Z,19.36
2023-01-15T23:40:20.124Z,19.34
2023-01-15T23:43:07.910Z,19.36
2023-01-15T23:45:54.032Z,19.35
2023-01-15T23:48:22.180Z,19.35
2023-01-15T23:50:51.592Z,19.35
2023-01-15T23:53:19.658Z,19.36
2023-01-15T23:55:47.725Z,19.36
2023-01-15T23:58:15.725Z,19.33
